Time;durP1;ratioP1;P1;durP2;ratioP2;P2;SDS_P1;SDS_P2;PMS_P1;PMS_P2;Temp;Humidity;BMP_temperature;BMP_pressure;BME280_temperature;BME280_humidity;BME280_pressure;Samples;Min_cycle;Max_cycle;Signal;HPM_P1;HPM_P2
2023/03/27 00:00:41;;;;;;;8.88;0.68;;;4.00;99.90;;;;;;4239174;27;20040;-84
2023/03/27 00:02:48;;;;;;;4.68;0.80;;;4.90;99.90;;;;;;4209574;28;20076;-84
2023/03/27 00:04:53;;;;;;;3.95;0.70;;;3.80;99.90;;;;;;4234033;28;20044;-83
2023/03/27 00:06:55;;;;;;;5.10;1.30;;;3.70;99.90;;;;;;4235201;28;20047;-84
2023/03/27 00:08:55;;;;;;;5.72;1.00;;;4.50;99.90;;;;;;4202012;28;20067;-84
2023/03/27 00:10:58;;;;;;;2.28;0.43;;;4.80;99.90;;;;;;4212565;28;20053;-84
2023/03/27 00:13:02;;;;;;;6.00;0.75;;;3.80;99.90;;;;;;4238255;27;20086;-84
2023/03/27 00:15:03;;;;;;;4.63;0.47;;;4.50;99.90;;;;;;4221637;28;20085;-82
2023/03/27 00:17:03;;;;;;;2.63;0.70;;;3.50;99.90;;;;;;4205591;28;20043;-83
2023/03/27 00:19:06;;;;;;;7.53;1.08;;;4.40;99.90;;;;;;4219347;28;20044;-83
2023/03/27 00:21:08;;;;;;;6.13;0.80;;;4.20;99.90;;;;;;4251109;27;20530;-83
2023/03/27 00:23:15;;;;;;;5.38;1.38;;;3.40;99.90;;;;;;4201111;28;20051;-83
2023/03/27 00:25:16;;;;;;;7.85;0.70;;;3.30;99.90;;;;;;4239109;27;20493;-83
2023/03/27 00:27:18;;;;;;;3.25;0.90;;;3.30;99.90;;;;;;4232145;28;20071;-84
2023/03/27 00:29:20;;;;;;;4.43;1.08;;;3.30;99.90;;;;;;4240267;27;20031;-83
2023/03/27 00:31:21;;;;;;;12.48;1.65;;;3.50;99.90;;;;;;4231500;28;20412;-83
2023/03/27 00:33:23;;;;;;;7.88;1.00;;;4.10;99.90;;;;;;4207831;28;20036;-83
2023/03/27 00:35:26;;;;;;;7.05;1.08;;;3.20;99.90;;;;;;4216469;28;20076;-83
2023/03/27 00:37:29;;;;;;;6.20;1.02;;;3.30;99.90;;;;;;4208945;28;20048;-83
2023/03/27 00:39:30;;;;;;;5.88;0.50;;;3.20;99.90;;;;;;4233717;28;20047;-84
2023/03/27 00:41:32;;;;;;;4.50;0.98;;;3.70;99.90;;;;;;4253228;27;20043;-84
2023/03/27 00:43:35;;;;;;;9.07;1.30;;;4.10;99.90;;;;;;4230148;28;20048;-84
2023/03/27 00:45:37;;;;;;;9.68;1.65;;;3.30;99.90;;;;;;4237014;27;20118;-84
2023/03/27 00:47:39;;;;;;;7.93;1.35;;;3.80;99.90;;;;;;4197240;28;20450;-84
2023/03/27 00:49:41;;;;;;;4.50;0.63;;;3.30;99.90;;;;;;4230913;27;20546;-84
2023/03/27 00:51:47;;;;;;;4.22;1.10;;;3.70;99.90;;;;;;4211098;28;20504;-84
2023/03/27 00:53:49;;;;;;;6.93;1.02;;;4.70;99.90;;;;;;4234957;28;20403;-84
2023/03/27 00:56:02;;;;;;;5.47;0.63;;;2.50;99.90;;;;;;4217411;28;20082;-84
2023/03/27 00:58:10;;;;;;;3.38;0.95;;;3.30;99.90;;;;;;4245393;27;20505;-83
2023/03/27 01:00:15;;;;;;;5.30;1.05;;;3.20;99.90;;;;;;4252176;27;20499;-84
2023/03/27 01:02:17;;;;;;;6.07;0.80;;;3.20;99.90;;;;;;4206028;28;20036;-83
2023/03/27 01:04:20;;;;;;;15.55;1.42;;;3.20;99.90;;;;;;4223339;28;20062;-83
2023/03/27 01:06:23;;;;;;;5.18;0.90;;;3.10;99.90;;;;;;4229433;28;20048;-83
2023/03/27 01:08:29;;;;;;;3.85;0.93;;;4.20;99.90;;;;;;4214058;28;20054;-84
2023/03/27 01:10:42;;;;;;;6.68;2.10;;;2.80;99.90;;;;;;4205172;28;20044;-84
2023/03/27 01:13:03;;;;;;;9.05;1.33;;;3.00;99.90;;;;;;4235391;28;20111;-84
2023/03/27 01:15:24;;;;;;;5.22;1.17;;;3.10;99.90;;;;;;4191451;28;20082;-83
2023/03/27 01:17:39;;;;;;;1.45;0.40;;;3.10;99.90;;;;;;4215767;28;20035;-84
2023/03/27 01:19:55;;;;;;;8.63;0.90;;;3.00;99.90;;;;;;4228517;28;20044;-83
2023/03/27 01:22:32;;;;;;;3.47;0.68;;;3.10;99.90;;;;;;4243835;27;20074;-83
2023/03/27 01:24:44;;;;;;;4.82;0.50;;;3.00;99.90;;;;;;4220644;28;20071;-83
2023/03/27 01:26:56;;;;;;;5.70;0.60;;;3.70;99.90;;;;;;4235144;28;20039;-83
2023/03/27 01:29:24;;;;;;;7.57;0.98;;;2.90;99.90;;;;;;4200448;28;20052;-83
2023/03/27 01:31:32;;;;;;;5.88;0.77;;;2.90;99.90;;;;;;4226322;27;20046;-83
2023/03/27 01:34:08;;;;;;;3.22;0.90;;;3.70;99.90;;;;;;4230054;28;20543;-83
2023/03/27 01:36:22;;;;;;;8.57;1.10;;;2.80;99.90;;;;;;4207298;28;20131;-84
2023/03/27 01:38:38;;;;;;;2.55;0.80;;;2.80;99.90;;;;;;4248618;27;20491;-83
2023/03/27 01:41:10;;;;;;;7.70;0.75;;;2.80;99.90;;;;;;4220476;28;20056;-83
2023/03/27 01:43:43;;;;;;;15.05;2.25;;;2.70;99.90;;;;;;4203548;28;20051;-82
2023/03/27 01:46:02;;;;;;;6.05;1.25;;;2.70;99.90;;;;;;4214250;28;20487;-83
2023/03/27 01:48:14;;;;;;;6.25;2.08;;;3.50;99.90;;;;;;4208581;28;20057;-82
2023/03/27 01:50:30;;;;;;;7.40;0.75;;;2.60;99.90;;;;;;4203547;28;20048;-83
2023/03/27 01:52:37;;;;;;;5.53;1.27;;;2.70;99.90;;;;;;4231225;28;20054;-83
2023/03/27 01:54:52;;;;;;;5.50;0.50;;;1.80;99.90;;;;;;4235137;28;20048;-83
2023/03/27 01:57:16;;;;;;;4.63;0.90;;;2.60;99.90;;;;;;4253687;27;20520;-84
2023/03/27 01:59:22;;;;;;;8.68;1.17;;;2.90;99.90;;;;;;4220167;28;20040;-83
2023/03/27 02:01:29;;;;;;;16.13;2.25;;;2.60;99.90;;;;;;4227109;27;20103;-84
2023/03/27 02:03:38;;;;;;;5.90;0.85;;;3.60;99.90;;;;;;4220403;28;20047;-84
2023/03/27 02:06:05;;;;;;;5.90;0.75;;;3.90;99.90;;;;;;4228105;28;20095;-84
2023/03/27 02:08:19;;;;;;;5.20;0.90;;;3.80;99.90;;;;;;4228208;28;20040;-84
2023/03/27 02:10:30;;;;;;;7.50;1.17;;;3.70;99.90;;;;;;4239176;27;20052;-84
2023/03/27 02:12:34;;;;;;;8.95;0.95;;;2.80;99.90;;;;;;4258738;28;20066;-83
2023/03/27 02:14:51;;;;;;;3.67;0.88;;;2.90;99.90;;;;;;4255329;27;20024;-83
2023/03/27 02:17:06;;;;;;;7.93;2.42;;;2.70;99.90;;;;;;4233516;28;20068;-84
2023/03/27 02:19:19;;;;;;;7.63;1.05;;;3.00;99.90;;;;;;4223871;28;20086;-83
2023/03/27 02:21:22;;;;;;;7.57;0.80;;;3.00;99.90;;;;;;4216460;28;20120;-83
2023/03/27 02:23:23;;;;;;;6.63;1.08;;;3.10;99.90;;;;;;4246400;28;20051;-84
2023/03/27 02:25:29;;;;;;;7.78;1.77;;;4.20;99.90;;;;;;4219285;28;20044;-83
2023/03/27 02:27:43;;;;;;;4.95;1.17;;;3.00;99.90;;;;;;4232175;28;20112;-84
2023/03/27 02:30:07;;;;;;;4.40;1.05;;;3.20;99.90;;;;;;4264957;28;20104;-82
2023/03/27 02:32:17;;;;;;;3.20;0.77;;;2.10;99.90;;;;;;4253471;28;20042;-84
2023/03/27 02:34:52;;;;;;;7.38;0.88;;;2.90;99.90;;;;;;4264311;28;20043;-83
2023/03/27 02:37:16;;;;;;;5.25;0.90;;;3.00;99.90;;;;;;4250786;28;20031;-83
2023/03/27 02:39:37;;;;;;;1.95;0.50;;;3.00;99.90;;;;;;4234904;28;20043;-83
2023/03/27 02:41:50;;;;;;;5.00;0.73;;;3.00;99.90;;;;;;4228198;28;20048;-83
2023/03/27 02:43:51;;;;;;;4.20;1.00;;;3.70;99.90;;;;;;4228692;28;20036;-83
2023/03/27 02:45:56;;;;;;;6.60;0.73;;;3.00;99.90;;;;;;4211640;28;20074;-83
2023/03/27 02:48:27;;;;;;;4.75;0.93;;;3.10;99.90;;;;;;4239077;28;20044;-83
2023/03/27 02:50:42;;;;;;;5.70;0.73;;;3.00;99.90;;;;;;4204604;28;20056;-83
2023/03/27 02:52:51;;;;;;;4.10;0.70;;;3.00;99.90;;;;;;4256265;28;20047;-84
2023/03/27 02:54:58;;;;;;;6.60;1.25;;;3.10;99.90;;;;;;4237996;28;20491;-84
2023/03/27 02:57:05;;;;;;;6.82;1.10;;;4.10;99.90;;;;;;4202805;28;20052;-84
2023/03/27 02:59:23;;;;;;;4.50;1.00;;;3.30;99.90;;;;;;4234542;28;20044;-84
2023/03/27 03:01:30;;;;;;;4.93;1.03;;;2.90;99.90;;;;;;4221136;28;20039;-84
2023/03/27 03:03:43;;;;;;;6.85;1.63;;;3.40;99.90;;;;;;4203007;28;20528;-84
2023/03/27 03:05:44;;;;;;;9.00;1.13;;;2.80;99.90;;;;;;4220389;28;20048;-84
2023/03/27 03:07:46;;;;;;;5.82;1.02;;;4.10;99.90;;;;;;4204085;28;20055;-84
2023/03/27 03:09:48;;;;;;;3.88;0.70;;;2.70;99.90;;;;;;4202565;28;20048;-84
2023/03/27 03:11:53;;;;;;;7.30;1.60;;;3.20;99.90;;;;;;4238922;27;20043;-84
2023/03/27 03:13:56;;;;;;;3.72;0.68;;;1.90;99.90;;;;;;4203348;28;20182;-84
2023/03/27 03:15:58;;;;;;;8.88;1.13;;;2.70;99.90;;;;;;4254662;27;20066;-84
2023/03/27 03:18:00;;;;;;;3.28;0.90;;;2.20;99.90;;;;;;4213743;28;20528;-84
2023/03/27 03:20:06;;;;;;;4.38;1.00;;;2.80;99.90;;;;;;4212568;28;20044;-84
2023/03/27 03:22:10;;;;;;;5.10;1.23;;;2.60;99.90;;;;;;4249667;27;20103;-84
2023/03/27 03:24:11;;;;;;;5.57;1.77;;;3.00;99.90;;;;;;4231056;28;20054;-84
2023/03/27 03:26:18;;;;;;;5.68;0.70;;;2.60;99.90;;;;;;4220987;28;20040;-84
2023/03/27 03:28:19;;;;;;;5.28;1.33;;;2.70;99.90;;;;;;4236156;28;20080;-84
2023/03/27 03:30:20;;;;;;;12.27;1.20;;;1.50;99.90;;;;;;4227557;28;20036;-83
2023/03/27 03:32:22;;;;;;;3.35;0.85;;;2.50;99.90;;;;;;4236817;28;20052;-84
2023/03/27 03:34:23;;;;;;;4.90;0.82;;;2.50;99.90;;;;;;4257094;27;20035;-84
2023/03/27 03:36:24;;;;;;;5.18;0.85;;;3.50;99.90;;;;;;4207307;28;20087;-84
2023/03/27 03:38:25;;;;;;;9.25;1.45;;;2.40;99.90;;;;;;4214337;28;20056;-84
2023/03/27 03:40:28;;;;;;;6.78;1.25;;;2.40;99.90;;;;;;4254546;28;20044;-85
2023/03/27 03:42:31;;;;;;;3.78;0.82;;;2.80;99.90;;;;;;4236802;28;20053;-84
2023/03/27 03:44:33;;;;;;;6.18;0.80;;;2.80;99.90;;;;;;4250482;27;21228;-84
2023/03/27 03:46:35;;;;;;;6.72;1.25;;;2.90;99.90;;;;;;4238999;27;20041;-84
2023/03/27 03:48:36;;;;;;;8.23;1.02;;;3.40;99.90;;;;;;4240805;27;20028;-84
2023/03/27 03:50:39;;;;;;;5.40;1.38;;;2.30;99.90;;;;;;4248182;27;20046;-83
2023/03/27 03:52:46;;;;;;;5.05;1.65;;;2.30;99.90;;;;;;4231429;27;20028;-84
2023/03/27 03:54:47;;;;;;;6.82;0.80;;;2.40;99.90;;;;;;4237346;28;20028;-84
2023/03/27 03:56:49;;;;;;;5.72;1.85;;;3.40;99.90;;;;;;4235516;28;20073;-84
2023/03/27 03:58:50;;;;;;;6.72;1.27;;;2.50;99.90;;;;;;4254765;27;20061;-84
2023/03/27 04:00:56;;;;;;;6.40;1.25;;;2.40;99.90;;;;;;4235353;28;20084;-84
2023/03/27 04:02:58;;;;;;;8.65;1.50;;;3.50;99.90;;;;;;4203537;28;20041;-85
2023/03/27 04:05:00;;;;;;;4.78;1.02;;;2.50;99.90;;;;;;4227845;28;20050;-84
2023/03/27 04:07:01;;;;;;;5.55;1.00;;;1.60;99.90;;;;;;4220303;28;20036;-84
2023/03/27 04:09:03;;;;;;;5.05;1.30;;;2.50;99.90;;;;;;4219918;28;20040;-84
2023/03/27 04:11:07;;;;;;;7.90;1.20;;;2.40;99.90;;;;;;4220628;28;20052;-84
2023/03/27 04:13:08;;;;;;;7.13;1.40;;;3.10;99.90;;;;;;4234953;28;20088;-84
2023/03/27 04:15:10;;;;;;;8.98;1.50;;;2.40;99.90;;;;;;4265094;27;20053;-83
2023/03/27 04:17:12;;;;;;;8.65;1.55;;;2.30;99.90;;;;;;4244392;27;20036;-84
2023/03/27 04:19:17;;;;;;;8.80;1.88;;;2.30;99.90;;;;;;4220424;28;20048;-84
2023/03/27 04:21:19;;;;;;;4.07;1.33;;;2.50;99.90;;;;;;4219714;28;20056;-83
2023/03/27 04:23:20;;;;;;;7.80;1.17;;;2.60;99.90;;;;;;4234834;28;20118;-82
2023/03/27 04:25:23;;;;;;;7.30;1.10;;;2.40;99.90;;;;;;4249950;27;20265;-83
2023/03/27 04:27:29;;;;;;;10.38;1.23;;;1.30;99.90;;;;;;4201976;28;20159;-83
2023/03/27 04:29:30;;;;;;;9.00;1.20;;;2.70;99.90;;;;;;4212985;28;20036;-83
2023/03/27 04:31:33;;;;;;;14.13;1.65;;;3.60;99.90;;;;;;4219975;28;20040;-83
2023/03/27 04:33:38;;;;;;;3.35;1.10;;;3.40;99.90;;;;;;4209360;28;20052;-83
2023/03/27 04:35:39;;;;;;;7.65;1.55;;;2.50;99.90;;;;;;4187375;28;20037;-84
2023/03/27 04:37:41;;;;;;;4.00;0.70;;;1.50;99.90;;;;;;4216728;28;20104;-84
2023/03/27 04:39:45;;;;;;;6.88;0.60;;;3.50;99.90;;;;;;4249181;27;20071;-83
2023/03/27 04:41:48;;;;;;;5.57;0.80;;;1.70;99.90;;;;;;4210644;28;20036;-83
2023/03/27 04:43:50;;;;;;;6.65;1.25;;;2.70;99.90;;;;;;4217024;28;20047;-83
2023/03/27 04:45:53;;;;;;;2.67;0.95;;;3.10;99.90;;;;;;4224232;28;20418;-83
2023/03/27 04:48:01;;;;;;;6.32;1.30;;;3.90;99.90;;;;;;4207358;28;20052;-84
2023/03/27 04:50:03;;;;;;;5.30;0.82;;;2.90;99.90;;;;;;4207045;28;20056;-84
2023/03/27 04:52:05;;;;;;;4.65;0.82;;;2.70;99.90;;;;;;4248880;27;20067;-84
2023/03/27 04:54:07;;;;;;;8.98;1.75;;;3.10;99.90;;;;;;4246554;27;20372;-84
2023/03/27 04:56:09;;;;;;;5.20;0.40;;;3.70;99.90;;;;;;4214712;28;20048;-84
2023/03/27 04:58:11;;;;;;;5.03;0.43;;;2.60;99.90;;;;;;4244204;27;20178;-83
2023/03/27 05:00:18;;;;;;;2.17;0.60;;;3.20;99.90;;;;;;4248023;27;20050;-83
2023/03/27 05:02:18;;;;;;;5.60;0.40;;;2.60;99.90;;;;;;4206798;28;20032;-83
2023/03/27 05:04:20;;;;;;;1.85;0.30;;;2.60;99.90;;;;;;4237625;28;20048;-83
2023/03/27 05:06:24;;;;;;;3.40;0.55;;;2.10;99.90;;;;;;4218432;28;20071;-83
2023/03/27 05:08:26;;;;;;;2.05;0.30;;;3.60;99.90;;;;;;4249223;27;20042;-83
2023/03/27 05:10:26;;;;;;;2.03;0.60;;;2.50;99.90;;;;;;4252915;27;20126;-82
2023/03/27 05:12:27;;;;;;;4.57;0.73;;;2.40;99.90;;;;;;4221320;28;20056;-82
2023/03/27 05:14:28;;;;;;;3.33;0.88;;;2.40;99.90;;;;;;4243492;27;20483;-83
2023/03/27 05:16:29;;;;;;;5.00;0.30;;;2.40;99.90;;;;;;4246756;27;20135;-82
2023/03/27 05:18:29;;;;;;;4.18;1.15;;;3.70;99.90;;;;;;4220243;28;20512;-82
2023/03/27 05:20:32;;;;;;;3.15;0.88;;;2.90;99.90;;;;;;4246407;27;20042;-82
2023/03/27 05:22:33;;;;;;;1.40;0.52;;;2.30;99.90;;;;;;4221162;28;20458;-82
2023/03/27 05:24:34;;;;;;;1.17;0.30;;;2.20;99.90;;;;;;4228502;28;20100;-82
2023/03/27 05:26:37;;;;;;;2.13;1.13;;;2.90;99.90;;;;;;4211943;28;20477;-82
2023/03/27 05:28:38;;;;;;;5.03;1.05;;;2.90;99.90;;;;;;4239246;27;20048;-82
2023/03/27 05:30:41;;;;;;;6.32;1.17;;;2.20;99.90;;;;;;4249768;27;20441;-82
2023/03/27 05:32:47;;;;;;;1.23;0.28;;;2.20;99.90;;;;;;4251275;27;20542;-82
2023/03/27 05:34:53;;;;;;;4.00;0.40;;;2.20;99.90;;;;;;4218239;28;20036;-81
2023/03/27 05:36:56;;;;;;;3.85;0.40;;;2.90;99.90;;;;;;4252291;27;20499;-81
2023/03/27 05:38:57;;;;;;;3.15;0.40;;;2.10;99.90;;;;;;4252558;27;20039;-81
2023/03/27 05:40:59;;;;;;;3.80;0.80;;;3.20;99.90;;;;;;4217999;28;20051;-81
2023/03/27 05:43:01;;;;;;;4.93;0.65;;;2.20;99.90;;;;;;4227043;27;20485;-81
2023/03/27 05:45:02;;;;;;;4.43;0.93;;;2.10;99.90;;;;;;4219207;28;20052;-81
2023/03/27 05:47:03;;;;;;;2.13;0.60;;;2.10;99.90;;;;;;4216700;28;20043;-81
2023/03/27 05:49:04;;;;;;;3.53;0.57;;;2.10;99.90;;;;;;4222522;27;20043;-82
2023/03/27 05:51:08;;;;;;;4.32;0.45;;;2.10;99.90;;;;;;4217935;28;20084;-82
2023/03/27 05:53:09;;;;;;;4.53;0.70;;;2.00;99.90;;;;;;4252304;27;20047;-82
2023/03/27 05:55:11;;;;;;;2.75;0.52;;;2.00;99.90;;;;;;4231282;28;20043;-82
2023/03/27 05:57:12;;;;;;;4.00;0.50;;;3.10;99.90;;;;;;4232448;28;20039;-82
2023/03/27 05:59:13;;;;;;;4.40;1.15;;;2.00;99.90;;;;;;4204055;28;20124;-82
2023/03/27 06:01:14;;;;;;;8.27;1.08;;;2.40;99.90;;;;;;4212766;28;20119;-82
2023/03/27 06:03:18;;;;;;;4.00;1.60;;;3.20;99.90;;;;;;4203911;28;20492;-82
2023/03/27 06:05:20;;;;;;;4.57;0.85;;;2.60;99.90;;;;;;4213140;28;20040;-82
2023/03/27 06:07:21;;;;;;;6.72;1.20;;;3.50;99.90;;;;;;4220474;28;20036;-82
2023/03/27 06:09:21;;;;;;;4.32;0.50;;;1.70;99.90;;;;;;4248328;28;20565;-82
2023/03/27 06:11:24;;;;;;;6.60;0.82;;;2.90;99.90;;;;;;4219085;28;20043;-82
2023/03/27 06:13:25;;;;;;;2.97;0.50;;;2.40;99.90;;;;;;4224856;28;20067;-82
2023/03/27 06:15:26;;;;;;;5.63;0.50;;;2.20;99.90;;;;;;4227125;28;20467;-82
2023/03/27 06:17:27;;;;;;;6.95;0.60;;;2.70;99.90;;;;;;4219710;28;20054;-82
2023/03/27 06:19:28;;;;;;;3.08;0.75;;;2.80;99.90;;;;;;4210608;28;20036;-82
2023/03/27 06:21:28;;;;;;;2.20;0.65;;;3.20;99.90;;;;;;4212490;28;20048;-82
2023/03/27 06:23:30;;;;;;;3.67;0.65;;;3.20;99.90;;;;;;4222167;28;20038;-82
2023/03/27 06:25:33;;;;;;;7.05;1.77;;;3.10;99.90;;;;;;4247038;28;20075;-82
2023/03/27 06:27:34;;;;;;;4.60;0.60;;;2.40;99.90;;;;;;4205473;28;20075;-82
2023/03/27 06:29:36;;;;;;;4.40;1.25;;;2.50;99.90;;;;;;4205814;28;20052;-82
2023/03/27 06:31:38;;;;;;;5.07;0.70;;;2.50;99.90;;;;;;4222886;28;20051;-82
2023/03/27 06:33:39;;;;;;;5.10;0.82;;;2.70;99.90;;;;;;4211336;28;20040;-82
2023/03/27 06:35:42;;;;;;;8.43;1.58;;;3.20;99.90;;;;;;4241476;28;20376;-82
2023/03/27 06:37:47;;;;;;;4.13;0.85;;;2.70;99.90;;;;;;4245239;27;20051;-82
2023/03/27 06:39:49;;;;;;;4.50;1.15;;;2.80;99.90;;;;;;4245969;27;20114;-82
2023/03/27 06:41:50;;;;;;;12.20;0.90;;;2.80;99.90;;;;;;4254677;27;20031;-81
2023/03/27 06:43:51;;;;;;;9.02;1.15;;;2.40;99.90;;;;;;4237245;28;20096;-82
2023/03/27 06:45:53;;;;;;;4.05;0.80;;;3.50;99.90;;;;;;4247483;27;20039;-82
2023/03/27 06:47:57;;;;;;;2.92;0.52;;;3.70;99.90;;;;;;4237358;28;20048;-82
2023/03/27 06:49:59;;;;;;;6.90;0.77;;;3.10;99.90;;;;;;4245937;27;20058;-82
2023/03/27 06:52:02;;;;;;;6.50;1.70;;;4.00;99.90;;;;;;4230549;28;20048;-82
2023/03/27 06:54:03;;;;;;;6.38;1.00;;;3.30;99.90;;;;;;4230080;28;20047;-81
2023/03/27 06:56:04;;;;;;;7.22;1.10;;;3.50;99.90;;;;;;4243957;27;20040;-81
2023/03/27 06:58:05;;;;;;;10.05;1.73;;;3.60;99.90;;;;;;4247429;27;20066;-81
2023/03/27 07:00:11;;;;;;;7.88;1.00;;;3.90;99.90;;;;;;4244553;27;20131;-81
2023/03/27 07:02:12;;;;;;;5.95;1.15;;;3.00;99.90;;;;;;4248232;27;20039;-82
2023/03/27 07:04:14;;;;;;;9.57;0.68;;;5.40;99.90;;;;;;4207674;28;20041;-81
2023/03/27 07:06:18;;;;;;;3.60;0.60;;;4.40;99.90;;;;;;4248344;27;20521;-82
2023/03/27 07:08:18;;;;;;;11.52;1.05;;;5.00;99.90;;;;;;4242979;27;20459;-82
2023/03/27 07:10:22;;;;;;;8.70;1.73;;;4.70;99.90;;;;;;4202839;28;20048;-82
2023/03/27 07:12:23;;;;;;;6.32;1.35;;;4.70;99.90;;;;;;4249539;27;21225;-83
2023/03/27 07:14:24;;;;;;;8.63;0.93;;;4.60;99.90;;;;;;4241867;27;20051;-83
2023/03/27 07:16:28;;;;;;;6.95;1.17;;;4.50;99.90;;;;;;4201622;28;20045;-82
2023/03/27 07:18:29;;;;;;;10.32;0.85;;;5.30;99.90;;;;;;4233927;27;20032;-82
2023/03/27 07:20:31;;;;;;;2.42;0.93;;;4.20;99.90;;;;;;4204309;28;20040;-82
2023/03/27 07:22:31;;;;;;;1.70;0.50;;;5.00;99.90;;;;;;4237539;28;20051;-82
2023/03/27 07:24:32;;;;;;;3.50;1.42;;;3.90;99.90;;;;;;4204267;28;20049;-82
2023/03/27 07:26:33;;;;;;;6.93;0.98;;;3.80;99.90;;;;;;4237857;28;20448;-82
2023/03/27 07:28:37;;;;;;;7.68;0.95;;;4.60;99.90;;;;;;4221863;28;20052;-82
2023/03/27 07:30:39;;;;;;;6.50;1.05;;;3.80;99.90;;;;;;4243535;27;20043;-82
2023/03/27 07:32:43;;;;;;;2.63;0.55;;;4.00;99.90;;;;;;4220965;28;20043;-83
2023/03/27 07:34:45;;;;;;;4.93;0.70;;;4.20;99.90;;;;;;4206394;28;20084;-83
2023/03/27 07:36:45;;;;;;;6.38;1.17;;;4.50;99.90;;;;;;4238915;28;20047;-82
2023/03/27 07:38:46;;;;;;;7.57;1.63;;;5.00;99.90;;;;;;4225584;28;20067;-82
2023/03/27 07:40:49;;;;;;;2.65;0.55;;;5.30;99.90;;;;;;4251185;27;20035;-83
2023/03/27 07:42:50;;;;;;;1.20;0.50;;;5.30;99.90;;;;;;4201478;28;20045;-83
2023/03/27 07:44:51;;;;;;;2.30;0.57;;;5.20;99.90;;;;;;4211488;28;20119;-84
2023/03/27 07:46:53;;;;;;;2.28;0.40;;;4.90;99.90;;;;;;4212465;28;20123;-84
2023/03/27 07:48:55;;;;;;;5.13;0.82;;;6.20;99.90;;;;;;4223922;28;20039;-84
2023/03/27 07:50:58;;;;;;;6.07;0.60;;;5.30;99.90;;;;;;4212199;28;20067;-84
2023/03/27 07:53:00;;;;;;;1.05;0.60;;;5.00;99.90;;;;;;4253699;27;20080;-84
2023/03/27 07:55:02;;;;;;;4.20;0.70;;;5.10;99.90;;;;;;4225744;28;20056;-84
2023/03/27 07:57:04;;;;;;;2.17;0.30;;;5.70;99.90;;;;;;4260652;27;20046;-84
2023/03/27 07:59:05;;;;;;;2.03;0.30;;;5.60;99.90;;;;;;4223612;28;20043;-85
2023/03/27 08:01:06;;;;;;;6.70;0.82;;;5.80;99.90;;;;;;4210741;28;20056;-85
2023/03/27 08:03:10;;;;;;;1.48;0.25;;;5.80;99.90;;;;;;4237354;27;20040;-83
2023/03/27 08:05:15;;;;;;;0.90;0.30;;;5.70;99.90;;;;;;4249498;27;20074;-83
2023/03/27 08:07:17;;;;;;;0.90;0.38;;;5.80;99.90;;;;;;4219933;28;20047;-83
2023/03/27 08:09:17;;;;;;;1.40;0.28;;;6.10;99.90;;;;;;4237827;27;20120;-81
2023/03/27 08:11:18;;;;;;;2.17;0.63;;;6.40;99.90;;;;;;4232512;27;20507;-83
2023/03/27 08:13:20;;;;;;;1.17;0.70;;;7.80;99.90;;;;;;4207388;28;20479;-82
2023/03/27 08:15:21;;;;;;;1.38;0.40;;;7.40;99.90;;;;;;4239027;27;20044;-83
2023/03/27 08:17:26;;;;;;;2.85;1.10;;;8.20;99.90;;;;;;4203336;28;20040;-83
2023/03/27 08:19:27;;;;;;;3.70;0.68;;;8.90;99.90;;;;;;4228933;28;20507;-83
2023/03/27 08:21:32;;;;;;;3.65;0.60;;;9.40;99.90;;;;;;4250791;27;20075;-83
2023/03/27 08:23:34;;;;;;;3.63;0.60;;;9.00;99.90;;;;;;4245093;27;20040;-83
2023/03/27 08:25:36;;;;;;;6.18;0.60;;;10.10;99.90;;;;;;4204670;28;20538;-83
2023/03/27 08:27:37;;;;;;;3.25;0.70;;;10.40;99.90;;;;;;4226549;28;20044;-83
2023/03/27 08:29:41;;;;;;;3.75;0.70;;;10.70;99.90;;;;;;4235466;27;20031;-83
2023/03/27 08:31:42;;;;;;;3.30;0.63;;;11.00;99.90;;;;;;4243720;27;20040;-83
2023/03/27 08:33:43;;;;;;;5.07;0.70;;;11.20;99.90;;;;;;4222238;28;20078;-83
2023/03/27 08:35:47;;;;;;;6.05;0.70;;;11.20;99.70;;;;;;4215102;28;20044;-83
2023/03/27 08:37:48;;;;;;;6.55;0.50;;;11.10;99.70;;;;;;4207985;28;20132;-83
2023/03/27 08:39:50;;;;;;;4.38;0.88;;;10.50;99.90;;;;;;4233752;28;20039;-83
2023/03/27 08:41:54;;;;;;;7.38;1.25;;;10.10;99.90;;;;;;4223243;28;20051;-83
2023/03/27 08:43:59;;;;;;;4.40;0.95;;;9.50;99.90;;;;;;4241746;27;20042;-83
2023/03/27 08:46:20;;;;;;;3.95;0.95;;;9.00;99.90;;;;;;4207660;28;20127;-83
2023/03/27 08:48:37;;;;;;;5.90;0.82;;;8.40;99.90;;;;;;4210015;28;20052;-83
2023/03/27 08:51:02;;;;;;;10.68;2.20;;;8.00;99.90;;;;;;4245404;27;20047;-84
2023/03/27 08:53:10;;;;;;;3.38;1.02;;;8.70;99.90;;;;;;4200852;28;20083;-84
2023/03/27 08:55:18;;;;;;;3.55;0.40;;;8.00;99.90;;;;;;4230063;28;20508;-83
2023/03/27 08:57:22;;;;;;;8.02;2.13;;;9.10;99.90;;;;;;4233109;28;20098;-84
2023/03/27 08:59:30;;;;;;;7.00;1.10;;;9.70;99.90;;;;;;4237330;27;20035;-84
2023/03/27 09:01:37;;;;;;;2.78;0.52;;;10.00;99.90;;;;;;4227033;28;20052;-84
2023/03/27 09:04:03;;;;;;;4.95;0.75;;;9.50;99.90;;;;;;4217483;28;20500;-83
2023/03/27 09:06:17;;;;;;;5.85;0.60;;;9.00;99.90;;;;;;4242111;27;20472;-84
2023/03/27 09:08:33;;;;;;;5.30;0.80;;;9.20;99.90;;;;;;4203494;28;20127;-84
2023/03/27 09:10:48;;;;;;;4.15;0.60;;;9.70;99.90;;;;;;4211921;28;20126;-84
2023/03/27 09:12:58;;;;;;;2.97;0.30;;;10.30;99.90;;;;;;4198211;28;20056;-84
2023/03/27 09:15:08;;;;;;;3.65;0.50;;;11.00;99.70;;;;;;4216056;28;20058;-83
2023/03/27 09:17:16;;;;;;;2.42;0.45;;;11.50;98.80;;;;;;4218679;28;20044;-83
2023/03/27 09:19:29;;;;;;;1.13;0.43;;;12.00;98.30;;;;;;4234320;28;20103;-84
2023/03/27 09:21:50;;;;;;;2.15;0.30;;;12.50;97.30;;;;;;4216685;28;20403;-83
2023/03/27 09:23:53;;;;;;;3.30;0.28;;;12.90;94.90;;;;;;4217466;28;20044;-83
2023/03/27 09:25:58;;;;;;;2.65;0.45;;;13.30;95.80;;;;;;4221627;28;20051;-81
2023/03/27 09:28:10;;;;;;;3.03;0.40;;;13.30;94.70;;;;;;4240266;28;20051;-81
2023/03/27 09:30:13;;;;;;;1.25;0.25;;;13.10;94.30;;;;;;4242579;28;20099;-81
2023/03/27 09:32:15;;;;;;;1.15;0.32;;;13.00;94.60;;;;;;4237763;28;20043;-82
2023/03/27 09:34:28;;;;;;;1.77;0.20;;;13.00;94.40;;;;;;4231839;28;20054;-82
2023/03/27 09:36:30;;;;;;;3.10;0.50;;;13.50;93.80;;;;;;4209359;28;20056;-81
2023/03/27 09:38:36;;;;;;;3.45;0.47;;;13.50;93.90;;;;;;4235369;28;20043;-82
2023/03/27 09:40:53;;;;;;;1.42;0.38;;;13.10;93.70;;;;;;4227704;28;20047;-82
2023/03/27 09:42:54;;;;;;;3.42;0.25;;;12.70;93.70;;;;;;4231264;28;20044;-82
2023/03/27 09:44:59;;;;;;;2.60;0.40;;;12.30;94.40;;;;;;4212998;28;20138;-82
2023/03/27 09:47:13;;;;;;;1.08;0.30;;;13.10;93.90;;;;;;4224019;28;20048;-81
2023/03/27 09:49:19;;;;;;;5.25;1.23;;;13.00;92.90;;;;;;4222036;28;20047;-82
2023/03/27 09:51:40;;;;;;;3.30;0.90;;;12.60;93.40;;;;;;4199274;28;20052;-82
2023/03/27 09:53:57;;;;;;;3.65;0.68;;;13.10;92.30;;;;;;4215798;28;20086;-81
2023/03/27 09:56:03;;;;;;;2.03;0.57;;;13.50;91.40;;;;;;4237241;28;20039;-82
2023/03/27 09:58:19;;;;;;;4.47;0.85;;;13.50;91.90;;;;;;4206639;28;20101;-81
2023/03/27 10:00:32;;;;;;;2.60;0.50;;;13.10;91.50;;;;;;4235924;28;20095;-82
2023/03/27 10:02:33;;;;;;;5.22;0.68;;;13.10;91.50;;;;;;4227314;28;20161;-82
2023/03/27 10:04:35;;;;;;;5.35;1.23;;;12.60;91.90;;;;;;4198848;28;20060;-82
2023/03/27 10:06:41;;;;;;;1.02;0.50;;;12.00;91.80;;;;;;4245847;28;20043;-82
2023/03/27 10:08:48;;;;;;;5.85;0.52;;;11.50;92.30;;;;;;4232899;28;20098;-82
2023/03/27 10:10:57;;;;;;;3.90;1.30;;;11.00;92.10;;;;;;4247749;28;20065;-82
2023/03/27 10:12:59;;;;;;;3.08;0.63;;;11.00;92.60;;;;;;4206701;27;1128117;-83
2023/03/27 10:15:00;;;;;;;3.55;0.80;;;11.20;92.80;;;;;;4248640;28;20058;-82
2023/03/27 10:17:03;;;;;;;3.10;1.00;;;11.30;92.70;;;;;;4232289;28;20476;-83
2023/03/27 10:19:05;;;;;;;4.57;1.08;;;11.70;92.60;;;;;;4232105;28;20118;-83
2023/03/27 10:21:10;;;;;;;5.80;0.60;;;12.00;92.30;;;;;;4236201;28;20503;-81
2023/03/27 10:23:27;;;;;;;1.55;0.30;;;11.90;92.10;;;;;;4233505;28;20043;-83
2023/03/27 10:25:30;;;;;;;1.75;0.30;;;12.10;91.10;;;;;;4213843;28;20051;-81
2023/03/27 10:27:33;;;;;;;5.18;0.50;;;12.20;91.60;;;;;;4226198;28;20046;-82
2023/03/27 10:29:35;;;;;;;3.72;0.77;;;12.00;91.10;;;;;;4243586;28;20039;-83
2023/03/27 10:31:38;;;;;;;5.13;0.50;;;11.60;91.00;;;;;;4226846;28;20044;-83
2023/03/27 10:33:40;;;;;;;6.28;1.33;;;11.60;91.00;;;;;;4217266;28;20515;-83
2023/03/27 10:35:47;;;;;;;2.88;0.70;;;11.90;91.30;;;;;;4232114;28;20047;-83
2023/03/27 10:37:49;;;;;;;4.07;0.98;;;11.80;90.60;;;;;;4234789;28;20395;-84
2023/03/27 10:39:52;;;;;;;4.18;0.35;;;11.70;90.70;;;;;;4222251;28;20352;-83
2023/03/27 10:41:53;;;;;;;5.38;0.50;;;11.20;90.70;;;;;;4241444;28;20036;-84
2023/03/27 10:43:56;;;;;;;4.68;0.50;;;11.50;90.60;;;;;;4245546;28;20051;-84
2023/03/27 10:46:03;;;;;;;2.72;0.75;;;11.10;89.50;;;;;;4242773;28;20043;-84
2023/03/27 10:48:06;;;;;;;3.63;0.60;;;10.80;89.40;;;;;;4228688;28;20055;-83
2023/03/27 10:50:17;;;;;;;2.72;0.95;;;11.00;90.00;;;;;;4253718;28;20043;-83
2023/03/27 10:52:31;;;;;;;4.65;0.90;;;11.30;89.50;;;;;;4243538;28;20040;-84
2023/03/27 10:54:45;;;;;;;2.92;0.32;;;11.70;87.70;;;;;;4239957;28;20479;-84
2023/03/27 10:56:54;;;;;;;3.47;1.45;;;12.20;87.10;;;;;;4253015;28;20051;-84
2023/03/27 10:59:28;;;;;;;4.15;0.40;;;12.50;86.70;;;;;;4221119;28;20044;-84
2023/03/27 11:01:38;;;;;;;3.28;0.60;;;12.80;85.30;;;;;;4246822;28;20035;-84